Natchez, MS (39120)

2:38 AM CST on December 07, 2016 (GMT -0600)
Natchez Downtown (near MS river) | | Change Station

Elev 220 ft 31.56 °N, 91.40 °W | Updated 12 seconds ago

Overcast
Overcast
50.9 °F
Feels Like 50.9 °F
N
0.0
Wind Variable Wind from North
Gusts 0.0 mph

Today
High -- | Low -- °F
--% Chance of Precip.
Yesterday
High -- | Low -- °F
Precip. -- in
Pressure 30.04 in
Visibility 5.0 miles
Clouds Overcast 400 ft
Dew Point 33 °F
Humidity 50%
Rainfall 0.00 in
Snow Depth Not available.
6:52 AM 5:02 PM
Waxing Crescent, 50% visible
METAR KHEZ 070835Z AUTO 03005KT 5SM OVC004 09/07 A3004 RMK AO1
Pressure 30.04 in
Visibility 5.0 miles
Clouds Overcast 400 ft
Dew Point 33 °F
Humidity 50%
Rainfall 0.00 in
Snow Depth Not available.
6:52 AM 5:02 PM
Waxing Crescent, 50% visible
METAR KHEZ 070835Z AUTO 03005KT 5SM OVC004 09/07 A3004 RMK AO1

10-Day Weather Forecast

Almanac

Astronomy

Dec. 07, 2016 Rise Set
Actual Time
Civil Twilight
Nautical Twilight
Astronomical Twilight
Moon
Length of Visible Light
Length of Day
Tomorrow will be .
, % of the Moon is Illuminated

Today's Extremes

State Highs State Lows

Community

WunderPhotos

Upload Photos

1,956,104 photos uploaded!

WunderBlog® & News

Nearby

Air Quality

  Air Quality AQ Index Pollutant
Not available.

Snow Depth

Station Depth Elevation

Earthquake Activity

City Distance Mag. Time & Date
Minimum magnitude displayed is 2.5.

Coastal Water Temperatures

Place Temperature

Stations

Nearby Weather Stations

Station Location Temp. Windchill Dew Point Humidity Wind Precip. Elev Updated Type
                   

Watches & Warnings

There are currently no watches in effect.